createdAt,value
2018-06-19T19:45:41.533Z,20.30
2018-06-19T19:48:22.489Z,20.30
2018-06-19T19:50:59.919Z,20.30
2018-06-19T19:53:29.441Z,20.40
2018-06-19T19:56:16.150Z,20.30
2018-06-19T19:58:54.640Z,20.30
2018-06-19T20:01:30.459Z,20.10
2018-06-19T20:04:12.274Z,20.10
2018-06-19T20:06:51.893Z,20.00
2018-06-19T20:09:38.267Z,19.90
2018-06-19T20:12:14.640Z,20.00
2018-06-19T20:14:47.235Z,20.00
2018-06-19T20:20:05.329Z,19.80
2018-06-19T20:22:44.432Z,19.70
2018-06-19T20:25:26.138Z,19.50
2018-06-19T20:28:10.827Z,19.40
2018-06-19T20:30:48.214Z,19.30
2018-06-19T20:33:20.669Z,19.20
2018-06-19T20:35:50.172Z,19.20
2018-06-19T20:38:21.808Z,19.20
2018-06-19T20:41:04.040Z,19.10
2018-06-19T20:46:14.919Z,18.90
2018-06-19T20:48:56.596Z,18.80
2018-06-19T20:51:27.115Z,18.80
2018-06-19T20:53:56.815Z,18.70
2018-06-19T20:56:26.246Z,18.70
2018-06-19T20:58:55.981Z,18.50
2018-06-19T21:01:26.145Z,18.40
2018-06-19T21:03:55.538Z,18.30
2018-06-19T21:06:25.031Z,18.30
2018-06-19T21:08:54.285Z,18.40
2018-06-19T21:13:52.322Z,18.60
2018-06-19T21:16:21.452Z,18.30
2018-06-19T21:18:51.147Z,18.20
2018-06-19T21:21:20.877Z,18.30
2018-06-19T21:23:51.163Z,18.40
2018-06-19T21:26:20.931Z,18.40
2018-06-19T21:28:51.174Z,18.50
2018-06-19T21:31:21.931Z,18.50
2018-06-19T21:33:52.406Z,18.50
2018-06-19T21:38:52.422Z,18.20
2018-06-19T21:41:21.879Z,18.40
2018-06-19T21:43:55.469Z,18.40
2018-06-19T21:46:24.996Z,18.50
2018-06-19T21:48:58.306Z,17.90
2018-06-19T21:51:27.824Z,17.70
2018-06-19T21:53:57.362Z,17.50
2018-06-19T21:56:26.439Z,17.40
2018-06-19T21:58:58.513Z,17.30
2018-06-19T22:01:29.528Z,17.40
2018-06-19T22:06:30.183Z,17.30
2018-06-19T22:09:00.000Z,17.30
2018-06-19T22:11:31.138Z,17.20
2018-06-19T22:14:01.640Z,17.20
2018-06-19T22:16:31.768Z,17.10
2018-06-19T22:19:02.394Z,17.10
2018-06-19T22:21:32.118Z,17.00
2018-06-19T22:24:02.454Z,17.00
2018-06-19T22:26:32.410Z,17.00
2018-06-19T22:29:02.254Z,17.00
2018-06-19T22:31:32.041Z,16.90
2018-06-19T22:34:01.822Z,16.90
2018-06-19T22:36:31.517Z,16.80
2018-06-19T22:39:03.282Z,16.90
2018-06-19T22:41:33.094Z,16.80
2018-06-19T22:46:33.198Z,16.80
2018-06-19T22:49:03.594Z,16.70
2018-06-19T22:51:34.290Z,16.70
2018-06-19T22:54:05.329Z,16.60
2018-06-19T22:56:35.327Z,16.60
2018-06-19T22:59:05.114Z,16.50
2018-06-19T23:01:35.564Z,16.50
2018-06-19T23:04:05.377Z,16.50
2018-06-19T23:06:35.057Z,16.40
2018-06-19T23:09:06.620Z,16.50
2018-06-19T23:11:37.950Z,16.40
2018-06-19T23:14:08.401Z,16.40
2018-06-19T23:16:38.598Z,16.30
2018-06-19T23:19:08.268Z,16.30
2018-06-19T23:21:38.148Z,16.20
2018-06-19T23:24:07.840Z,16.20
2018-06-19T23:26:38.273Z,16.10
2018-06-19T23:29:08.324Z,16.10
2018-06-19T23:31:37.985Z,16.10
2018-06-19T23:34:08.622Z,16.00
2018-06-19T23:36:38.319Z,16.00
2018-06-19T23:39:09.385Z,16.10
2018-06-19T23:41:40.230Z,16.00
2018-06-19T23:44:10.144Z,15.90
2018-06-19T23:46:39.957Z,15.90
2018-06-19T23:49:10.430Z,15.90
2018-06-19T23:51:40.523Z,15.90
2018-06-19T23:54:10.183Z,15.80
2018-06-19T23:56:40.129Z,15.80
2018-06-19T23:59:09.817Z,15.80
